Time;durP1;ratioP1;P1;durP2;ratioP2;P2;SDS_P1;SDS_P2;PMS_P1;PMS_P2;Temp;Humidity;BMP_temperature;BMP_pressure;BME280_temperature;BME280_humidity;BME280_pressure;Samples;Min_cycle;Max_cycle;Signal;HPM_P1;HPM_P2
2021/05/02 00:02:21;;;;;;;2.17;1.70;;;4.50;99.90;;;;;;5030921;28;20454;-71
2021/05/02 00:04:47;;;;;;;1.30;1.20;;;4.60;99.90;;;;;;5031412;28;20882;-71
2021/05/02 00:07:15;;;;;;;1.57;1.47;;;4.50;99.90;;;;;;5030862;28;20600;-71
2021/05/02 00:09:42;;;;;;;1.30;1.20;;;4.50;99.90;;;;;;5031171;28;20434;-71
2021/05/02 00:12:09;;;;;;;1.60;1.50;;;4.50;99.90;;;;;;5030904;28;20430;-72
2021/05/02 00:14:35;;;;;;;1.63;1.50;;;4.50;99.90;;;;;;5030626;28;20460;-71
2021/05/02 00:17:02;;;;;;;2.70;1.70;;;4.50;99.90;;;;;;5030815;28;20490;-71
2021/05/02 00:19:29;;;;;;;2.23;1.50;;;4.40;99.90;;;;;;5030437;28;20450;-71
2021/05/02 00:21:56;;;;;;;4.10;1.60;;;4.40;99.90;;;;;;5030673;28;20424;-71
2021/05/02 00:24:23;;;;;;;1.63;1.53;;;4.40;99.90;;;;;;5030473;28;20468;-70
2021/05/02 00:26:51;;;;;;;1.50;1.40;;;4.30;99.90;;;;;;5030633;28;20432;-71
2021/05/02 00:29:18;;;;;;;1.63;1.53;;;4.30;99.90;;;;;;5030207;28;20924;-70
2021/05/02 00:31:45;;;;;;;2.27;1.70;;;4.30;99.90;;;;;;5030651;28;20428;-71
2021/05/02 00:34:12;;;;;;;1.73;1.57;;;4.30;99.90;;;;;;5031674;27;20473;-71
2021/05/02 00:36:40;;;;;;;2.13;1.53;;;4.20;99.90;;;;;;5030485;28;20428;-73
2021/05/02 00:39:07;;;;;;;2.47;1.67;;;4.20;99.90;;;;;;5030633;28;20804;-70
2021/05/02 00:41:36;;;;;;;1.60;1.50;;;4.20;99.90;;;;;;5030473;28;20426;-71
2021/05/02 00:44:05;;;;;;;1.30;1.20;;;4.10;99.90;;;;;;5029965;28;20443;-70
2021/05/02 00:46:36;;;;;;;1.70;1.60;;;4.10;99.90;;;;;;5030418;28;20479;-71
2021/05/02 00:49:12;;;;;;;2.03;1.20;;;4.10;99.90;;;;;;5030161;28;20528;-70
2021/05/02 00:51:41;;;;;;;2.00;1.80;;;4.10;99.90;;;;;;5030398;28;20441;-70
2021/05/02 00:54:17;;;;;;;1.60;1.50;;;4.10;99.90;;;;;;5030545;28;20985;-71
2021/05/02 00:57:00;;;;;;;1.80;1.70;;;4.10;99.90;;;;;;5030215;28;20436;-71
2021/05/02 00:59:42;;;;;;;1.83;1.73;;;4.20;99.90;;;;;;5029772;28;20482;-71
2021/05/02 01:02:11;;;;;;;5.53;2.20;;;4.20;99.90;;;;;;5030142;28;20436;-70
2021/05/02 01:04:41;;;;;;;1.40;1.30;;;4.20;99.90;;;;;;5030096;28;20459;-70
2021/05/02 01:07:13;;;;;;;2.23;1.40;;;4.10;99.90;;;;;;5030093;28;20428;-71
2021/05/02 01:09:39;;;;;;;1.60;1.50;;;4.20;99.90;;;;;;5029833;28;20826;-71
2021/05/02 01:12:11;;;;;;;1.67;1.57;;;4.20;99.90;;;;;;5029717;28;20529;-72
2021/05/02 01:14:44;;;;;;;1.50;1.40;;;4.10;99.90;;;;;;5029618;28;20464;-71
2021/05/02 01:17:14;;;;;;;1.63;1.53;;;4.10;99.90;;;;;;5029920;28;20439;-71
2021/05/02 01:19:41;;;;;;;2.20;2.00;;;4.10;99.90;;;;;;5029806;28;20849;-71
2021/05/02 01:22:14;;;;;;;1.60;1.33;;;4.20;99.90;;;;;;5029796;28;20431;-71
2021/05/02 01:24:46;;;;;;;1.60;1.50;;;4.20;99.90;;;;;;5029887;28;20876;-70
2021/05/02 01:27:23;;;;;;;1.90;1.80;;;4.20;99.90;;;;;;5029796;28;20424;-71
2021/05/02 01:29:50;;;;;;;2.57;1.63;;;4.20;99.90;;;;;;5029239;28;20709;-71
2021/05/02 01:32:17;;;;;;;1.80;1.70;;;4.20;99.90;;;;;;5030055;28;20432;-72
2021/05/02 01:34:44;;;;;;;2.63;2.43;;;4.30;99.90;;;;;;5030663;27;20475;-71
2021/05/02 01:37:11;;;;;;;2.50;2.10;;;4.30;99.90;;;;;;5029597;28;20428;-71
2021/05/02 01:39:39;;;;;;;2.43;2.23;;;4.30;99.90;;;;;;5029432;28;20431;-71
2021/05/02 01:42:07;;;;;;;2.70;2.50;;;4.30;99.90;;;;;;5029710;28;20809;-72
2021/05/02 01:44:37;;;;;;;3.17;2.80;;;4.40;99.90;;;;;;5029124;28;20445;-71
2021/05/02 01:47:11;;;;;;;3.53;3.00;;;4.40;99.90;;;;;;5029701;28;20443;-71
2021/05/02 01:49:47;;;;;;;3.47;2.60;;;4.40;99.90;;;;;;5029054;28;20453;-70
2021/05/02 01:52:15;;;;;;;3.77;3.17;;;4.40;99.90;;;;;;5029668;28;20447;-71
2021/05/02 01:54:43;;;;;;;3.83;3.43;;;4.40;99.90;;;;;;5029085;28;21037;-70
2021/05/02 01:57:16;;;;;;;4.53;3.73;;;4.40;99.90;;;;;;5029354;28;20429;-71
2021/05/02 01:59:46;;;;;;;5.70;4.50;;;4.50;99.90;;;;;;5028666;28;20431;-72
2021/05/02 02:02:13;;;;;;;6.30;5.63;;;4.50;99.90;;;;;;5028018;28;20893;-70
2021/05/02 02:04:44;;;;;;;8.43;6.63;;;4.40;99.90;;;;;;5028864;28;20532;-72
2021/05/02 02:07:14;;;;;;;9.73;7.00;;;4.30;99.90;;;;;;5029284;28;20436;-71
2021/05/02 02:09:41;;;;;;;12.50;8.33;;;4.30;99.90;;;;;;5029477;28;20422;-71
2021/05/02 02:12:09;;;;;;;12.63;9.07;;;4.30;99.90;;;;;;5028953;28;20444;-71
2021/05/02 02:14:38;;;;;;;11.13;8.90;;;4.30;99.90;;;;;;5028636;28;20497;-73
2021/05/02 02:17:06;;;;;;;10.60;7.93;;;4.30;99.90;;;;;;5029076;28;20487;-71
2021/05/02 02:19:34;;;;;;;14.50;9.93;;;4.30;99.90;;;;;;5028942;28;20448;-70
2021/05/02 02:22:01;;;;;;;13.60;9.13;;;4.30;99.90;;;;;;5028805;28;20433;-70
2021/05/02 02:24:41;;;;;;;11.40;9.07;;;4.30;99.90;;;;;;5029022;28;20464;-72
2021/05/02 02:27:09;;;;;;;13.67;9.17;;;4.30;99.90;;;;;;5028707;28;20440;-71
2021/05/02 02:29:42;;;;;;;13.20;9.00;;;4.40;99.90;;;;;;5029823;27;20955;-72
2021/05/02 02:32:11;;;;;;;14.20;10.10;;;4.40;99.90;;;;;;5028913;28;20505;-70
2021/05/02 02:34:43;;;;;;;10.63;8.30;;;4.40;99.90;;;;;;5028664;28;20855;-71
2021/05/02 02:37:13;;;;;;;11.37;8.27;;;4.40;99.90;;;;;;5028679;28;20455;-71
2021/05/02 02:39:44;;;;;;;13.07;9.07;;;4.40;99.90;;;;;;5028505;28;20438;-71
2021/05/02 02:42:13;;;;;;;9.80;7.17;;;4.30;99.90;;;;;;5028509;28;20706;-71
2021/05/02 02:44:45;;;;;;;12.23;8.70;;;4.30;99.90;;;;;;5028123;28;20447;-71
2021/05/02 02:47:13;;;;;;;10.40;8.40;;;4.40;99.90;;;;;;5028509;28;20429;-71
2021/05/02 02:49:46;;;;;;;10.87;8.93;;;4.30;99.90;;;;;;5028249;28;20846;-70
2021/05/02 02:52:18;;;;;;;12.20;8.60;;;4.30;99.90;;;;;;5028531;28;20519;-72
2021/05/02 02:54:49;;;;;;;12.23;8.07;;;4.30;99.90;;;;;;5028688;28;20452;-72
2021/05/02 02:57:21;;;;;;;12.70;9.00;;;4.30;99.90;;;;;;5028768;28;20441;-71
2021/05/02 02:59:53;;;;;;;13.37;9.80;;;4.30;99.90;;;;;;5028254;28;20429;-71
2021/05/02 03:02:23;;;;;;;15.03;10.40;;;4.30;99.90;;;;;;5028000;28;20428;-71
2021/05/02 03:04:53;;;;;;;14.50;9.40;;;4.30;99.90;;;;;;5042392;28;20684;-71
2021/05/02 03:07:22;;;;;;;13.93;10.13;;;4.30;99.90;;;;;;5048172;28;20488;-71
2021/05/02 03:09:50;;;;;;;11.90;8.83;;;4.20;99.90;;;;;;5047829;28;20796;-70
2021/05/02 03:12:19;;;;;;;14.07;9.80;;;4.20;99.90;;;;;;5034962;27;20453;-71
2021/05/02 03:14:49;;;;;;;13.20;10.37;;;4.10;99.90;;;;;;5027979;28;20469;-70
2021/05/02 03:17:20;;;;;;;16.33;11.13;;;4.00;99.90;;;;;;5028352;28;20424;-71
2021/05/02 03:19:50;;;;;;;15.87;12.00;;;4.00;99.90;;;;;;5027989;28;20432;-71
2021/05/02 03:22:26;;;;;;;17.20;11.60;;;4.10;99.90;;;;;;5028218;28;20501;-72
2021/05/02 03:24:56;;;;;;;17.13;11.70;;;4.10;99.90;;;;;;5028842;27;20467;-71
2021/05/02 03:27:26;;;;;;;16.40;12.17;;;4.10;99.90;;;;;;5027793;28;20476;-71
2021/05/02 03:29:56;;;;;;;17.70;11.43;;;4.10;99.90;;;;;;5027874;28;20497;-71
2021/05/02 03:32:28;;;;;;;14.10;11.20;;;4.10;99.90;;;;;;5027905;28;20435;-71
2021/05/02 03:34:56;;;;;;;16.40;11.50;;;4.00;99.90;;;;;;5046814;27;20570;-71
2021/05/02 03:37:26;;;;;;;15.30;12.17;;;4.10;99.90;;;;;;5047715;28;20463;-72
2021/05/02 03:39:52;;;;;;;20.00;11.13;;;4.10;99.90;;;;;;5034263;27;20445;-71
2021/05/02 03:42:19;;;;;;;17.13;12.00;;;4.00;99.90;;;;;;5028089;28;20428;-71
2021/05/02 03:44:46;;;;;;;12.90;10.20;;;4.00;99.90;;;;;;5027557;28;20467;-72
2021/05/02 03:47:14;;;;;;;14.50;10.20;;;3.90;99.90;;;;;;5027926;28;20431;-71
2021/05/02 03:49:40;;;;;;;14.10;10.33;;;3.90;99.90;;;;;;5027551;28;20428;-72
2021/05/02 03:52:07;;;;;;;15.23;11.53;;;4.00;99.90;;;;;;5027788;28;20428;-71
2021/05/02 03:54:34;;;;;;;14.97;10.97;;;4.00;99.90;;;;;;5027295;28;20870;-71
2021/05/02 03:57:01;;;;;;;14.27;10.77;;;4.00;99.90;;;;;;5027875;28;20432;-70
2021/05/02 03:59:28;;;;;;;17.30;12.10;;;4.00;99.90;;;;;;5027591;28;20519;-71
2021/05/02 04:01:57;;;;;;;13.20;10.93;;;4.00;99.90;;;;;;5027488;28;20446;-71
2021/05/02 04:04:26;;;;;;;17.03;13.03;;;4.00;99.90;;;;;;5027326;28;20946;-71
2021/05/02 04:06:57;;;;;;;18.90;12.87;;;4.00;99.90;;;;;;5027310;28;20476;-71
2021/05/02 04:09:24;;;;;;;13.33;11.10;;;4.00;99.90;;;;;;5027024;28;20463;-71
2021/05/02 04:11:51;;;;;;;14.93;11.40;;;4.00;99.90;;;;;;5027568;28;20440;-71
2021/05/02 04:14:17;;;;;;;12.00;10.43;;;4.10;99.90;;;;;;5027305;28;20808;-70
2021/05/02 04:16:44;;;;;;;14.33;11.40;;;3.90;99.90;;;;;;5027497;28;20481;-70
2021/05/02 04:19:11;;;;;;;11.77;9.03;;;3.90;99.90;;;;;;5027209;28;20477;-70
2021/05/02 04:21:40;;;;;;;15.33;10.47;;;3.90;99.90;;;;;;5027308;28;20829;-71
2021/05/02 04:24:07;;;;;;;14.37;10.53;;;3.90;99.90;;;;;;5027115;28;20831;-72
2021/05/02 04:26:34;;;;;;;12.90;11.00;;;3.90;99.90;;;;;;5030625;28;20472;-70
2021/05/02 04:29:01;;;;;;;15.20;11.40;;;3.90;99.90;;;;;;5030417;28;20913;-71
2021/05/02 04:31:27;;;;;;;11.20;9.13;;;3.90;99.90;;;;;;5030732;28;20788;-72
2021/05/02 04:33:54;;;;;;;12.50;9.97;;;3.80;99.90;;;;;;5039934;28;20850;-71
2021/05/02 04:36:20;;;;;;;11.37;9.30;;;3.80;99.90;;;;;;5050416;28;20424;-67
2021/05/02 04:38:48;;;;;;;14.57;11.60;;;3.80;99.90;;;;;;5043037;27;20470;-67
2021/05/02 04:41:15;;;;;;;13.57;10.60;;;3.90;99.90;;;;;;5030483;28;20428;-67
2021/05/02 04:43:41;;;;;;;12.70;10.50;;;4.00;99.90;;;;;;5030435;28;20972;-68
2021/05/02 04:46:11;;;;;;;10.97;9.20;;;4.00;99.90;;;;;;5030436;28;20475;-67
2021/05/02 04:48:40;;;;;;;13.80;9.87;;;4.00;99.90;;;;;;5030188;28;20469;-68
2021/05/02 04:51:06;;;;;;;11.43;9.80;;;4.00;99.90;;;;;;5030378;28;20432;-67
2021/05/02 04:53:33;;;;;;;14.60;11.40;;;4.00;99.90;;;;;;5031710;27;21049;-67
2021/05/02 04:56:04;;;;;;;13.63;10.70;;;3.90;99.90;;;;;;5030184;28;20444;-69
2021/05/02 04:58:31;;;;;;;13.67;10.50;;;4.00;99.90;;;;;;5041709;28;20932;-68
2021/05/02 05:00:57;;;;;;;16.17;11.90;;;4.00;99.90;;;;;;5049353;28;20932;-68
2021/05/02 05:03:24;;;;;;;12.63;10.17;;;4.00;99.90;;;;;;5048849;28;20443;-68
2021/05/02 05:05:51;;;;;;;13.70;10.90;;;4.00;99.90;;;;;;5049272;28;20470;-68
2021/05/02 05:08:17;;;;;;;16.97;11.77;;;4.10;99.90;;;;;;5047347;28;20447;-67
2021/05/02 05:10:44;;;;;;;12.83;10.00;;;3.90;99.90;;;;;;5049042;28;20424;-68
2021/05/02 05:13:12;;;;;;;14.70;11.13;;;3.90;99.90;;;;;;5049006;28;20812;-68
2021/05/02 05:15:39;;;;;;;22.00;11.73;;;3.80;99.90;;;;;;5048716;28;20440;-68
2021/05/02 05:18:06;;;;;;;13.83;11.50;;;3.80;99.90;;;;;;5049165;28;20427;-68
2021/05/02 05:20:33;;;;;;;19.37;14.13;;;3.80;99.90;;;;;;5047123;28;20431;-68
2021/05/02 05:22:59;;;;;;;14.90;11.43;;;3.80;99.90;;;;;;5047943;28;20489;-69
2021/05/02 05:25:26;;;;;;;16.07;12.37;;;3.90;99.90;;;;;;5049130;28;20878;-69
2021/05/02 05:27:53;;;;;;;15.27;10.90;;;3.90;99.90;;;;;;5049073;28;20812;-67
2021/05/02 05:30:21;;;;;;;15.93;13.73;;;4.00;99.90;;;;;;5048512;28;20987;-68
2021/05/02 05:32:47;;;;;;;17.77;12.60;;;4.00;99.90;;;;;;5047530;27;20420;-67
2021/05/02 05:35:14;;;;;;;15.97;11.50;;;4.00;99.90;;;;;;5047918;28;20465;-69
2021/05/02 05:37:41;;;;;;;16.47;12.70;;;4.00;99.90;;;;;;5049192;28;20435;-68
2021/05/02 05:40:09;;;;;;;13.57;10.77;;;4.00;99.90;;;;;;5049821;28;20435;-68
2021/05/02 05:42:35;;;;;;;14.20;11.97;;;4.00;99.90;;;;;;5048951;28;20977;-68
2021/05/02 05:45:02;;;;;;;16.70;13.07;;;3.90;99.90;;;;;;5048724;28;20461;-67
2021/05/02 05:47:30;;;;;;;15.67;12.23;;;3.90;99.90;;;;;;5049104;28;20442;-69
2021/05/02 05:49:56;;;;;;;16.73;12.40;;;3.90;99.90;;;;;;5048932;27;20436;-68
2021/05/02 05:52:23;;;;;;;18.23;13.30;;;3.90;99.90;;;;;;5046381;28;20439;-68
2021/05/02 05:54:50;;;;;;;16.83;12.67;;;3.90;99.90;;;;;;5049201;28;20507;-69
2021/05/02 05:57:16;;;;;;;14.33;11.80;;;3.90;99.90;;;;;;5048722;28;20430;-68
2021/05/02 05:59:43;;;;;;;16.43;12.47;;;4.00;99.90;;;;;;5045912;28;20420;-68
2021/05/02 06:02:10;;;;;;;16.17;11.17;;;4.00;99.90;;;;;;5048797;28;20781;-68
2021/05/02 06:04:37;;;;;;;11.37;8.23;;;4.00;99.90;;;;;;5048676;28;20455;-67
2021/05/02 06:07:05;;;;;;;13.07;9.73;;;4.00;99.90;;;;;;5046012;28;20475;-67
2021/05/02 06:09:31;;;;;;;15.07;10.57;;;4.00;99.90;;;;;;5048597;28;20421;-67
2021/05/02 06:11:58;;;;;;;13.13;11.33;;;4.10;99.90;;;;;;5048421;28;20429;-68
2021/05/02 06:14:25;;;;;;;12.90;9.50;;;4.20;99.90;;;;;;5048634;28;20445;-67
2021/05/02 06:16:51;;;;;;;13.90;9.40;;;4.10;99.90;;;;;;5048124;28;20427;-67
2021/05/02 06:19:19;;;;;;;10.87;9.40;;;4.10;99.90;;;;;;5045814;28;20792;-68
2021/05/02 06:21:47;;;;;;;14.80;11.63;;;4.10;99.90;;;;;;5047082;27;20542;-71
2021/05/02 06:24:14;;;;;;;15.47;10.90;;;4.20;99.90;;;;;;5048752;28;20460;-68
2021/05/02 06:26:41;;;;;;;14.27;11.67;;;4.10;99.90;;;;;;5048140;28;20518;-68
2021/05/02 06:29:07;;;;;;;13.57;11.10;;;4.10;99.90;;;;;;5048738;28;20488;-68
2021/05/02 06:31:34;;;;;;;14.07;12.47;;;4.00;99.90;;;;;;5047998;28;20443;-67
2021/05/02 06:34:00;;;;;;;18.00;12.63;;;4.10;99.90;;;;;;5038481;27;20488;-67
2021/05/02 06:36:27;;;;;;;20.07;13.97;;;4.10;99.90;;;;;;5028733;28;20437;-67
2021/05/02 06:38:55;;;;;;;19.30;13.17;;;4.20;99.90;;;;;;5028682;28;20917;-68
2021/05/02 06:41:21;;;;;;;15.90;12.77;;;4.20;99.90;;;;;;5028830;28;20455;-67
2021/05/02 06:43:48;;;;;;;16.23;11.90;;;4.20;99.90;;;;;;5029757;27;20541;-68
2021/05/02 06:46:27;;;;;;;15.97;13.00;;;4.30;99.90;;;;;;5028532;28;20475;-67
2021/05/02 06:48:56;;;;;;;17.30;12.67;;;4.20;99.90;;;;;;5028153;28;20428;-68
2021/05/02 06:51:23;;;;;;;16.43;12.60;;;4.10;99.90;;;;;;5033432;28;20438;-67
2021/05/02 06:53:49;;;;;;;18.87;13.73;;;4.10;99.90;;;;;;5036556;27;20485;-67
2021/05/02 06:56:17;;;;;;;17.87;13.63;;;4.20;99.90;;;;;;5028715;28;20495;-67
2021/05/02 06:58:44;;;;;;;19.80;14.57;;;4.10;99.90;;;;;;5029165;27;21006;-67
2021/05/02 07:01:10;;;;;;;23.00;14.77;;;4.00;99.90;;;;;;5054355;27;20431;-67
2021/05/02 07:03:37;;;;;;;19.30;13.00;;;4.00;99.90;;;;;;5048358;28;20447;-67
2021/05/02 07:06:04;;;;;;;19.10;13.53;;;4.00;99.90;;;;;;5052262;27;21021;-67
2021/05/02 07:08:31;;;;;;;18.80;14.47;;;4.10;99.90;;;;;;5050818;27;20908;-67
2021/05/02 07:10:58;;;;;;;20.13;15.10;;;4.10;99.90;;;;;;5045108;28;20419;-67
2021/05/02 07:13:27;;;;;;;22.43;15.60;;;4.20;99.90;;;;;;5047667;28;20447;-67
2021/05/02 07:15:54;;;;;;;22.40;16.00;;;4.30;99.90;;;;;;5048402;28;20427;-67
2021/05/02 07:18:21;;;;;;;19.50;14.70;;;4.40;99.90;;;;;;5043019;27;20463;-68
2021/05/02 07:20:50;;;;;;;21.87;15.27;;;4.50;99.90;;;;;;5028055;28;20432;-67
2021/05/02 07:23:17;;;;;;;23.20;16.33;;;4.70;99.90;;;;;;5028186;28;21144;-67
2021/05/02 07:25:43;;;;;;;23.53;15.87;;;4.90;99.90;;;;;;5028359;28;20478;-69
2021/05/02 07:28:10;;;;;;;23.53;16.70;;;5.00;99.90;;;;;;5027976;28;20446;-68
2021/05/02 07:30:38;;;;;;;21.83;15.47;;;4.90;99.90;;;;;;5027664;28;20948;-67
2021/05/02 07:33:05;;;;;;;21.80;15.97;;;5.00;99.90;;;;;;5028453;27;20443;-68
2021/05/02 07:35:31;;;;;;;21.23;15.70;;;5.00;99.90;;;;;;5028096;28;20450;-68
2021/05/02 07:37:58;;;;;;;25.90;16.97;;;5.10;99.90;;;;;;5028203;28;20419;-67
2021/05/02 07:40:25;;;;;;;19.40;13.53;;;5.00;99.90;;;;;;5028650;27;20451;-67
2021/05/02 07:42:52;;;;;;;20.60;15.50;;;4.80;99.90;;;;;;5028477;28;20430;-67
2021/05/02 07:45:19;;;;;;;20.70;14.23;;;4.90;99.90;;;;;;5027750;28;20498;-67
2021/05/02 07:47:46;;;;;;;19.07;14.10;;;4.90;99.90;;;;;;5027573;28;20443;-68
2021/05/02 07:50:14;;;;;;;20.50;15.17;;;5.00;99.90;;;;;;5027614;28;20451;-67
2021/05/02 07:52:41;;;;;;;22.63;16.93;;;5.00;99.90;;;;;;5027853;28;20433;-67
2021/05/02 07:55:09;;;;;;;17.40;13.60;;;4.80;99.90;;;;;;5044531;27;20464;-67
2021/05/02 07:57:36;;;;;;;17.73;12.83;;;4.80;99.90;;;;;;5048916;27;20425;-66
2021/05/02 08:00:04;;;;;;;16.47;13.30;;;4.70;99.90;;;;;;5048321;28;20427;-67
2021/05/02 08:02:30;;;;;;;18.10;12.70;;;4.80;99.90;;;;;;5050574;28;20931;-67
2021/05/02 08:04:58;;;;;;;16.10;12.50;;;4.80;99.90;;;;;;5041658;27;20466;-68
2021/05/02 08:07:25;;;;;;;20.33;13.47;;;4.80;99.90;;;;;;5048629;28;20478;-67
2021/05/02 08:09:55;;;;;;;16.80;13.20;;;4.80;99.90;;;;;;5046829;28;21050;-67
2021/05/02 08:12:21;;;;;;;16.77;12.07;;;4.70;99.90;;;;;;5046356;28;20440;-68
2021/05/02 08:14:48;;;;;;;15.60;12.40;;;4.60;99.90;;;;;;5050258;28;20447;-69
2021/05/02 08:17:15;;;;;;;20.80;14.30;;;4.50;99.90;;;;;;5050732;28;20783;-68
2021/05/02 08:19:41;;;;;;;20.47;14.70;;;4.60;99.90;;;;;;5050326;28;20428;-67
2021/05/02 08:22:09;;;;;;;18.70;13.07;;;4.80;99.90;;;;;;5048566;28;20428;-68
2021/05/02 08:24:36;;;;;;;18.17;12.80;;;4.90;99.90;;;;;;5049128;28;20954;-67
2021/05/02 08:27:05;;;;;;;19.30;13.43;;;4.90;99.90;;;;;;5049852;27;20991;-68
2021/05/02 08:29:32;;;;;;;18.57;14.13;;;5.10;99.90;;;;;;5049775;28;20488;-68
2021/05/02 08:32:03;;;;;;;19.77;13.77;;;5.40;99.90;;;;;;5050102;28;20423;-68
2021/05/02 08:34:30;;;;;;;17.77;13.03;;;5.50;99.90;;;;;;5032393;27;20531;-68
2021/05/02 08:36:56;;;;;;;19.13;13.50;;;5.70;99.90;;;;;;5032588;28;20447;-70
2021/05/02 08:39:24;;;;;;;17.57;12.10;;;5.80;99.90;;;;;;5042928;27;20456;-68
2021/05/02 08:41:54;;;;;;;15.50;12.83;;;5.90;99.90;;;;;;5031876;28;20922;-68
2021/05/02 08:44:24;;;;;;;15.50;12.40;;;5.90;99.90;;;;;;5031614;28;20475;-68
2021/05/02 08:46:54;;;;;;;21.47;13.93;;;5.80;99.90;;;;;;5033513;27;20590;-66
2021/05/02 08:49:21;;;;;;;16.90;12.40;;;5.80;99.90;;;;;;5032904;28;21675;-68
2021/05/02 08:51:49;;;;;;;16.00;12.60;;;6.00;99.90;;;;;;5033535;28;20518;-65
2021/05/02 08:54:16;;;;;;;17.40;14.10;;;6.10;99.90;;;;;;5031498;27;20467;-65
2021/05/02 08:56:43;;;;;;;17.70;13.30;;;6.20;99.90;;;;;;5046328;27;20452;-69
2021/05/02 08:59:10;;;;;;;18.33;13.60;;;6.30;99.90;;;;;;5032141;28;20465;-67
2021/05/02 09:01:44;;;;;;;15.97;14.17;;;6.30;99.90;;;;;;5049780;27;21012;-67
2021/05/02 09:04:11;;;;;;;18.57;14.23;;;6.40;99.90;;;;;;5034000;28;20462;-67
2021/05/02 09:06:39;;;;;;;19.30;14.50;;;6.50;99.90;;;;;;5050478;27;20471;-68
2021/05/02 09:09:08;;;;;;;20.30;12.70;;;6.50;99.90;;;;;;5124082;27;20432;-68
2021/05/02 09:11:36;;;;;;;18.23;13.40;;;6.50;99.90;;;;;;5153947;27;20436;-67
2021/05/02 09:14:07;;;;;;;17.67;13.23;;;6.60;99.90;;;;;;5097025;27;20453;-67
2021/05/02 09:16:48;;;;;;;15.63;13.10;;;6.50;99.90;;;;;;5049603;28;20436;-68
2021/05/02 09:19:15;;;;;;;16.67;12.37;;;6.40;99.90;;;;;;5056137;27;20478;-67
2021/05/02 09:21:42;;;;;;;22.63;13.43;;;6.50;99.90;;;;;;5065883;27;20440;-67
2021/05/02 09:24:24;;;;;;;20.40;15.50;;;6.60;99.90;;;;;;5051550;27;20453;-66
2021/05/02 09:27:06;;;;;;;18.57;13.60;;;6.70;99.90;;;;;;5049955;27;20481;-67
2021/05/02 09:29:35;;;;;;;16.90;13.70;;;6.70;99.90;;;;;;5049047;28;20773;-69
2021/05/02 09:32:04;;;;;;;18.67;13.80;;;6.70;99.90;;;;;;5049082;27;20419;-66
2021/05/02 09:34:31;;;;;;;17.53;13.17;;;6.60;99.90;;;;;;5049175;28;20851;-67
2021/05/02 09:37:02;;;;;;;18.10;12.40;;;6.60;99.90;;;;;;5053271;27;20431;-68
2021/05/02 09:39:40;;;;;;;17.70;13.40;;;6.60;99.90;;;;;;5046492;27;20847;-69
2021/05/02 09:42:09;;;;;;;17.70;14.07;;;6.60;99.90;;;;;;5046330;28;20835;-67
2021/05/02 09:44:48;;;;;;;17.03;13.57;;;6.70;99.90;;;;;;5048660;28;20456;-67
2021/05/02 09:47:26;;;;;;;16.97;12.80;;;6.60;99.90;;;;;;5047430;27;20475;-67
2021/05/02 09:50:17;;;;;;;18.03;14.23;;;6.40;99.90;;;;;;5047307;28;20436;-70
2021/05/02 09:52:55;;;;;;;20.83;13.70;;;6.70;99.90;;;;;;5046159;27;20432;-67
2021/05/02 09:55:29;;;;;;;16.97;13.03;;;6.70;99.90;;;;;;5048890;28;20492;-67
2021/05/02 09:57:58;;;;;;;15.60;13.30;;;6.90;99.90;;;;;;5048495;27;20432;-67
2021/05/02 10:00:34;;;;;;;17.27;15.00;;;7.10;99.90;;;;;;5046285;27;20425;-68
2021/05/02 10:03:04;;;;;;;19.53;14.97;;;7.30;99.90;;;;;;5048454;28;21013;-67
2021/05/02 10:05:31;;;;;;;17.23;13.00;;;7.40;99.90;;;;;;5048821;27;20454;-67
2021/05/02 10:08:01;;;;;;;17.40;12.90;;;7.30;99.90;;;;;;5048694;27;21658;-68
2021/05/02 10:10:28;;;;;;;17.70;13.27;;;7.40;99.90;;;;;;5046477;28;20435;-67
2021/05/02 10:12:56;;;;;;;17.40;12.63;;;7.50;99.90;;;;;;5048418;28;20776;-68
2021/05/02 10:15:24;;;;;;;16.40;12.70;;;7.50;99.90;;;;;;5044615;28;20472;-67
2021/05/02 10:17:52;;;;;;;15.40;12.30;;;7.50;99.90;;;;;;5045641;28;20421;-68
2021/05/02 10:20:20;;;;;;;14.40;11.53;;;7.60;99.90;;;;;;5047816;28;20935;-67
2021/05/02 10:22:49;;;;;;;17.23;12.43;;;7.40;99.90;;;;;;5047314;28;20469;-68
2021/05/02 10:25:17;;;;;;;16.00;11.50;;;7.30;99.90;;;;;;5048067;28;20483;-67
2021/05/02 10:27:49;;;;;;;15.27;12.27;;;7.50;99.90;;;;;;5048131;28;20482;-66
2021/05/02 10:30:26;;;;;;;18.20;13.50;;;7.40;99.90;;;;;;5040505;27;20453;-68
2021/05/02 10:33:02;;;;;;;16.13;13.40;;;7.70;99.90;;;;;;5034298;28;20430;-66
2021/05/02 10:35:43;;;;;;;15.53;12.67;;;8.20;99.90;;;;;;5048330;28;20477;-66
2021/05/02 10:38:10;;;;;;;14.00;11.27;;;8.50;99.90;;;;;;5047127;27;20446;-68
2021/05/02 10:40:39;;;;;;;15.90;12.80;;;8.70;99.90;;;;;;5028165;28;20442;-67
2021/05/02 10:43:09;;;;;;;14.47;12.53;;;8.70;99.90;;;;;;5028565;28;20997;-70
2021/05/02 10:45:47;;;;;;;15.77;11.80;;;8.40;99.90;;;;;;5028299;28;20424;-68
2021/05/02 10:48:36;;;;;;;13.87;12.40;;;8.30;99.90;;;;;;5046586;28;20488;-68
2021/05/02 10:51:23;;;;;;;16.23;12.40;;;8.20;99.90;;;;;;5044454;28;20788;-67
2021/05/02 10:54:15;;;;;;;16.00;12.20;;;7.90;99.90;;;;;;5045177;28;20440;-67
2021/05/02 10:56:53;;;;;;;14.10;11.80;;;7.90;99.90;;;;;;5046558;28;20514;-66
2021/05/02 10:59:22;;;;;;;14.37;12.00;;;8.00;99.90;;;;;;5043850;28;20439;-67
2021/05/02 11:01:50;;;;;;;13.80;12.30;;;8.40;99.90;;;;;;5046723;28;20418;-67
2021/05/02 11:04:22;;;;;;;13.50;11.23;;;8.60;99.90;;;;;;5046605;27;20494;-66
2021/05/02 11:06:54;;;;;;;12.33;10.80;;;8.40;99.90;;;;;;5046685;27;20470;-67
2021/05/02 11:09:29;;;;;;;13.53;10.63;;;8.40;99.90;;;;;;5043934;27;20447;-68
2021/05/02 11:11:57;;;;;;;11.77;10.17;;;7.90;99.90;;;;;;5044753;27;20442;-67
2021/05/02 11:14:35;;;;;;;16.27;11.77;;;7.70;99.90;;;;;;5046631;28;20480;-67
2021/05/02 11:17:22;;;;;;;15.80;11.93;;;7.70;99.90;;;;;;5044239;28;20435;-68
2021/05/02 11:19:52;;;;;;;18.00;11.90;;;7.40;99.90;;;;;;5046333;28;20939;-67
2021/05/02 11:22:20;;;;;;;16.37;12.17;;;7.30;99.90;;;;;;5046279;28;20457;-67
2021/05/02 11:24:57;;;;;;;17.50;12.40;;;7.10;99.90;;;;;;5046419;28;20442;-66
2021/05/02 11:28:01;;;;;;;15.20;12.77;;;7.10;99.90;;;;;;5045888;28;20477;-66
2021/05/02 11:30:30;;;;;;;28.37;18.50;;;7.10;99.90;;;;;;5046193;27;20516;-67
2021/05/02 11:32:57;;;;;;;16.03;12.13;;;7.10;99.90;;;;;;5044458;27;20445;-69
2021/05/02 11:35:53;;;;;;;14.93;11.90;;;7.10;99.90;;;;;;5046634;28;20992;-68
2021/05/02 11:38:38;;;;;;;14.80;11.80;;;6.70;99.90;;;;;;5046813;27;20434;-68
2021/05/02 11:41:09;;;;;;;14.97;11.13;;;6.80;99.90;;;;;;5044113;28;20469;-68
2021/05/02 11:43:40;;;;;;;14.93;12.33;;;7.00;99.90;;;;;;5045989;28;20537;-68
2021/05/02 11:46:16;;;;;;;12.67;11.13;;;7.00;99.90;;;;;;5033803;27;20534;-68
2021/05/02 11:48:44;;;;;;;16.70;14.00;;;7.10;99.90;;;;;;5027415;28;20803;-68
2021/05/02 11:51:19;;;;;;;16.13;11.70;;;6.90;99.90;;;;;;5030564;27;20519;-68
2021/05/02 11:53:49;;;;;;;14.50;11.20;;;6.70;99.90;;;;;;5027235;28;20533;-68
2021/05/02 11:56:19;;;;;;;12.50;10.97;;;6.60;99.90;;;;;;5028395;27;20448;-68
2021/05/02 11:58:47;;;;;;;13.77;11.63;;;6.70;99.90;;;;;;5047158;28;20450;-68
2021/05/02 12:01:16;;;;;;;16.00;12.30;;;6.80;99.90;;;;;;5047540;28;20448;-68
2021/05/02 12:03:44;;;;;;;17.00;12.33;;;7.00;99.90;;;;;;5047312;28;20449;-67
2021/05/02 12:06:21;;;;;;;14.83;13.00;;;7.10;99.90;;;;;;5047338;28;20522;-68
2021/05/02 12:08:48;;;;;;;9.70;8.70;;;7.10;99.90;;;;;;5028665;27;20457;-68
2021/05/02 12:11:15;;;;;;;10.97;9.20;;;7.10;99.90;;;;;;5027765;28;20439;-68
2021/05/02 12:13:45;;;;;;;10.30;8.53;;;7.10;99.90;;;;;;5027445;28;20461;-68
2021/05/02 12:16:13;;;;;;;9.80;7.33;;;7.10;99.90;;;;;;5027722;28;20440;-68
2021/05/02 12:18:57;;;;;;;9.00;8.10;;;7.00;99.90;;;;;;5031463;28;20969;-67
2021/05/02 12:21:27;;;;;;;6.47;5.87;;;6.90;99.90;;;;;;5042836;28;20475;-68
2021/05/02 12:24:06;;;;;;;8.13;6.80;;;6.80;99.90;;;;;;5045799;28;20834;-68
2021/05/02 12:26:34;;;;;;;10.00;8.70;;;6.80;99.90;;;;;;5045884;28;20488;-68
2021/05/02 12:29:04;;;;;;;15.40;9.97;;;6.80;99.90;;;;;;5043251;28;20429;-68
2021/05/02 12:31:30;;;;;;;13.57;10.17;;;6.90;99.90;;;;;;5047397;28;20534;-68
2021/05/02 12:33:57;;;;;;;10.27;8.93;;;7.00;99.90;;;;;;5040226;27;20845;-69
2021/05/02 12:36:28;;;;;;;12.70;9.20;;;7.00;99.90;;;;;;5037711;28;20634;-67
2021/05/02 12:39:06;;;;;;;12.67;9.80;;;7.10;99.90;;;;;;5043613;28;20516;-68
2021/05/02 12:41:36;;;;;;;9.83;8.83;;;7.00;99.90;;;;;;5043333;28;20934;-68
2021/05/02 12:44:17;;;;;;;10.93;8.87;;;6.50;99.90;;;;;;5046032;28;20459;-68
2021/05/02 12:46:48;;;;;;;8.90;7.43;;;6.40;99.90;;;;;;5047539;28;20994;-68
2021/05/02 12:49:22;;;;;;;6.60;4.00;;;6.50;99.90;;;;;;5046477;28;21063;-68
2021/05/02 12:51:52;;;;;;;5.47;4.97;;;6.60;99.90;;;;;;5049037;28;21006;-68
2021/05/02 12:54:19;;;;;;;4.43;4.03;;;6.50;99.90;;;;;;5048057;27;20502;-68
2021/05/02 12:57:08;;;;;;;3.80;3.50;;;6.50;99.90;;;;;;5049045;28;21002;-68